aviador You're here:

KHDO Decoded Metar

HONDO in TX, USA
Report Time2017-07-24 13:51:00
UTC Time2017-07-24 14:50:09
Flight Rules vfr VFR
Wind160° at 07 kt
W.Decomp.*RWY 17: 6.7 kt HW 2.2 kt LCW
RWY 13: 6.5 kt HW 2.6 kt RCW
RWY 08: 2.2 kt HW 6.7 kt RCW
W.Rank160° ranks 5
Current wind is below 160° avg. (9.0)
Visibility9999 m
Phenomena:N/A
Clouds:Scattered 014 Hf
Scattered 029 Hf
Expected CloudBase > 1,600 ft AGL from Temp-Dew spread
CeilingNone
Temp27°C (ISA +14)
Dew Point23°C (79% RH)
Heat Index29.6°C
QNH1016 hPa
Density Alt2,792 ft
Elevation925 ft
Report Wrong Elevation
Raw Report
METAR KHDO 241351Z AUTO 16007KT 10SM SCT014 SCT029 27/23 A3000 RMK
AO2 SLP142 T02720228 $=

Extra information for KHDO:More info

Metar Taf Metar & Taf Last 4 Metars F.Rules Stats Wind Profile Meteogram Temp Stats Airport Information Weather charts Add Link Nearby VenuesMetar ALERT Operation Metar Decoded Social comments

AIRNAV info for KHDO